createdAt,value
2023-05-04T00:02:14.008Z,7.43
2023-05-04T00:05:17.362Z,7.65
2023-05-04T00:08:20.732Z,7.95
2023-05-04T00:11:24.018Z,6.93
2023-05-04T00:14:27.377Z,7.60
2023-05-04T00:17:30.662Z,7.10
2023-05-04T00:20:34.286Z,9.23
2023-05-04T00:23:37.504Z,7.85
2023-05-04T00:26:41.178Z,8.23
2023-05-04T00:29:44.466Z,7.80
2023-05-04T00:32:47.852Z,8.60
2023-05-04T00:35:51.474Z,7.90
2023-05-04T00:38:56.098Z,11.60
2023-05-04T00:42:03.158Z,8.65
2023-05-04T00:45:06.933Z,8.25
2023-05-04T00:48:10.554Z,9.30
2023-05-04T00:51:16.966Z,8.15
2023-05-04T00:54:21.935Z,10.05
2023-05-04T00:57:25.557Z,10.55
2023-05-04T01:00:28.832Z,9.20
2023-05-04T01:03:33.710Z,7.50
2023-05-04T01:06:58.631Z,9.65
2023-05-04T01:10:10.004Z,8.50
2023-05-04T01:13:15.497Z,9.90
2023-05-04T01:16:19.069Z,8.95
2023-05-04T01:19:22.690Z,10.00
2023-05-04T01:22:28.917Z,9.15
2023-05-04T01:25:48.560Z,8.55
2023-05-04T01:29:13.546Z,8.48
2023-05-04T01:32:20.321Z,9.35
2023-05-04T01:35:23.993Z,7.53
2023-05-04T01:38:28.060Z,8.25
2023-05-04T01:41:31.267Z,8.68
2023-05-04T01:44:34.748Z,8.90
2023-05-04T01:47:40.961Z,9.68
2023-05-04T01:50:47.832Z,8.33
2023-05-04T01:53:51.188Z,9.23
2023-05-04T01:56:54.557Z,10.98
2023-05-04T01:59:57.861Z,11.23
2023-05-04T02:03:01.391Z,7.75
2023-05-04T02:06:04.902Z,8.87
2023-05-04T02:09:08.200Z,9.82
2023-05-04T02:12:11.392Z,9.13
2023-05-04T02:15:16.926Z,8.27
2023-05-04T02:18:20.292Z,9.60
2023-05-04T02:21:25.697Z,10.03
2023-05-04T02:24:29.022Z,8.55
2023-05-04T02:27:32.265Z,8.50
2023-05-04T02:30:37.422Z,8.40
2023-05-04T02:33:40.722Z,9.40
2023-05-04T02:36:49.016Z,7.90
2023-05-04T02:39:52.293Z,9.15
2023-05-04T02:42:56.060Z,8.98
2023-05-04T02:45:59.318Z,8.52
2023-05-04T02:49:02.983Z,7.85
2023-05-04T02:52:06.261Z,8.50
2023-05-04T02:55:10.036Z,10.82
2023-05-04T02:58:13.313Z,7.45
2023-05-04T03:01:17.056Z,7.88
2023-05-04T03:04:23.464Z,8.68
2023-05-04T03:07:28.688Z,8.47
2023-05-04T03:10:32.222Z,7.85
2023-05-04T03:13:35.542Z,8.75
2023-05-04T03:16:47.739Z,8.50
2023-05-04T03:19:51.834Z,7.97
2023-05-04T03:22:57.141Z,9.23
2023-05-04T03:26:01.732Z,10.02
2023-05-04T03:29:05.146Z,8.93
2023-05-04T03:32:08.949Z,8.50
2023-05-04T03:35:15.390Z,9.30
2023-05-04T03:38:21.455Z,8.33
2023-05-04T03:41:25.435Z,9.60
2023-05-04T03:44:32.241Z,8.18
2023-05-04T03:47:35.552Z,9.00
2023-05-04T03:50:42.416Z,9.45
2023-05-04T03:53:48.289Z,8.43
2023-05-04T03:56:53.811Z,9.75
2023-05-04T04:00:00.353Z,9.35
2023-05-04T04:03:06.172Z,8.82
2023-05-04T04:06:10.778Z,9.55
2023-05-04T04:09:18.156Z,9.60
2023-05-04T04:12:21.537Z,9.50
2023-05-04T04:15:27.386Z,11.65
2023-05-04T04:18:30.854Z,9.00
2023-05-04T04:21:34.824Z,9.50
2023-05-04T04:24:37.995Z,9.43
2023-05-04T04:27:41.382Z,11.13
2023-05-04T04:30:48.981Z,9.10
2023-05-04T04:33:54.834Z,10.82
2023-05-04T04:36:58.919Z,12.85
2023-05-04T04:40:02.969Z,10.67
2023-05-04T04:43:06.634Z,11.25
2023-05-04T04:46:10.659Z,10.88
2023-05-04T04:49:14.157Z,10.85
2023-05-04T04:52:18.200Z,13.57
2023-05-04T04:55:23.801Z,11.23
2023-05-04T04:58:27.279Z,9.85
2023-05-04T05:01:31.249Z,12.43
2023-05-04T05:04:37.736Z,11.30
2023-05-04T05:07:41.304Z,9.68
2023-05-04T05:10:49.542Z,11.33
2023-05-04T05:13:52.898Z,8.80
2023-05-04T05:16:56.662Z,10.45
2023-05-04T05:19:59.842Z,7.97
2023-05-04T05:23:02.841Z,9.73
2023-05-04T05:26:06.400Z,9.50
2023-05-04T05:29:10.149Z,11.93
2023-05-04T05:32:13.521Z,9.55
2023-05-04T05:35:17.203Z,8.43
2023-05-04T05:38:21.622Z,11.35
2023-05-04T05:41:25.949Z,9.30
2023-05-04T05:44:29.264Z,10.40
2023-05-04T05:47:32.634Z,9.50
2023-05-04T05:50:37.975Z,8.60
2023-05-04T05:53:42.805Z,8.75
2023-05-04T05:56:46.196Z,8.83
2023-05-04T05:59:49.569Z,12.10
2023-05-04T06:02:53.443Z,10.77
2023-05-04T06:05:56.954Z,14.15
2023-05-04T06:09:02.118Z,8.43
2023-05-04T06:12:12.354Z,9.57
2023-05-04T06:15:16.785Z,10.48
2023-05-04T06:18:20.562Z,10.60
2023-05-04T06:21:24.066Z,11.45
2023-05-04T06:24:27.419Z,10.15
2023-05-04T06:27:32.974Z,11.20
2023-05-04T06:30:36.734Z,10.60
2023-05-04T06:33:40.096Z,12.13
2023-05-04T06:36:44.214Z,9.90
2023-05-04T06:39:49.697Z,10.20
2023-05-04T06:42:55.191Z,7.80
2023-05-04T06:46:02.685Z,7.07
2023-05-04T06:49:06.485Z,9.05
2023-05-04T06:52:10.046Z,8.60
2023-05-04T06:55:14.041Z,7.95
2023-05-04T06:58:20.077Z,9.70
2023-05-04T07:01:23.796Z,8.57
2023-05-04T07:04:27.450Z,7.70
2023-05-04T07:07:32.073Z,7.95
2023-05-04T07:10:35.715Z,10.63
2023-05-04T07:13:39.539Z,8.70
2023-05-04T07:16:43.143Z,9.43
2023-05-04T07:19:47.079Z,8.27
2023-05-04T07:22:57.228Z,9.63
2023-05-04T07:26:00.712Z,6.72
2023-05-04T07:29:04.224Z,12.07
2023-05-04T07:32:07.469Z,9.10
2023-05-04T07:35:11.031Z,10.13
2023-05-04T07:38:14.322Z,7.88
2023-05-04T07:41:20.709Z,8.10
2023-05-04T07:44:24.231Z,9.67
2023-05-04T07:47:28.026Z,10.35
2023-05-04T07:50:37.831Z,11.38
2023-05-04T07:53:42.599Z,8.20
2023-05-04T07:56:46.392Z,7.45
2023-05-04T07:59:53.366Z,8.63
2023-05-04T08:02:57.143Z,8.85
2023-05-04T08:06:00.517Z,8.10
2023-05-04T08:09:03.751Z,8.30
2023-05-04T08:12:07.767Z,9.65
2023-05-04T08:15:11.739Z,7.97
2023-05-04T08:18:15.544Z,8.23
2023-05-04T08:21:19.476Z,8.13
2023-05-04T08:24:23.142Z,8.85
2023-05-04T08:27:26.539Z,8.57
2023-05-04T08:30:31.674Z,9.80
2023-05-04T08:33:35.914Z,9.60
2023-05-04T08:36:39.264Z,8.95
2023-05-04T08:39:42.536Z,9.95
2023-05-04T08:42:50.492Z,13.82
2023-05-04T08:45:53.873Z,9.83
2023-05-04T08:48:57.844Z,7.78
2023-05-04T08:52:03.034Z,9.20
2023-05-04T08:55:07.769Z,8.52
2023-05-04T08:58:13.380Z,7.65
2023-05-04T09:01:18.598Z,9.83
2023-05-04T09:04:23.005Z,8.15
2023-05-04T09:07:26.595Z,8.75
2023-05-04T09:10:31.578Z,8.52
2023-05-04T09:13:35.618Z,10.73
2023-05-04T09:16:39.332Z,9.00
2023-05-04T09:19:46.151Z,7.90
2023-05-04T09:23:06.954Z,9.05
2023-05-04T09:26:10.454Z,12.60
2023-05-04T09:29:15.099Z,9.65
2023-05-04T09:32:18.969Z,11.00
2023-05-04T09:35:34.114Z,8.45
2023-05-04T09:38:37.911Z,16.02
2023-05-04T09:41:42.745Z,12.05
2023-05-04T09:44:46.285Z,10.63
2023-05-04T09:47:53.065Z,7.40
2023-05-04T09:50:58.920Z,10.40
2023-05-04T09:54:03.366Z,9.88
2023-05-04T09:57:16.031Z,8.93
2023-05-04T10:00:20.617Z,7.90
2023-05-04T10:03:24.357Z,8.63
2023-05-04T10:06:52.770Z,7.70
2023-05-04T10:10:02.112Z,9.13
2023-05-04T10:13:05.774Z,8.77
2023-05-04T10:16:52.608Z,7.35
2023-05-04T10:20:15.017Z,7.37
2023-05-04T10:24:05.542Z,10.75
2023-05-04T10:27:10.862Z,6.88
2023-05-04T10:30:18.656Z,7.57
2023-05-04T10:33:22.753Z,8.30
2023-05-04T10:36:37.774Z,9.70
2023-05-04T10:39:50.375Z,10.02
2023-05-04T10:42:53.792Z,7.53
2023-05-04T10:45:57.779Z,6.88
2023-05-04T10:49:01.500Z,5.93
2023-05-04T10:52:12.662Z,11.07
2023-05-04T10:55:17.174Z,9.20
2023-05-04T10:58:29.182Z,6.30
2023-05-04T11:01:45.478Z,6.15
2023-05-04T11:05:07.034Z,7.68
2023-05-04T11:08:20.345Z,7.70
2023-05-04T11:11:24.525Z,6.90
2023-05-04T11:14:28.955Z,6.32
2023-05-04T11:17:32.466Z,6.75
2023-05-04T11:20:39.158Z,7.63
2023-05-04T11:23:43.804Z,9.77
2023-05-04T11:26:49.270Z,6.68
2023-05-04T11:30:03.391Z,7.85
2023-05-04T11:33:14.437Z,8.52
2023-05-04T11:36:18.489Z,6.00
2023-05-04T11:39:21.886Z,7.20
2023-05-04T11:42:26.149Z,6.47
2023-05-04T11:45:33.231Z,7.63
2023-05-04T11:48:37.665Z,6.70
2023-05-04T11:51:41.015Z,6.15
2023-05-04T11:54:55.692Z,8.37
2023-05-04T11:58:03.505Z,7.45
2023-05-04T12:01:08.864Z,7.40
2023-05-04T12:04:12.637Z,9.75
2023-05-04T12:07:16.019Z,7.60
2023-05-04T12:10:31.397Z,5.83
2023-05-04T12:13:34.743Z,7.15
2023-05-04T12:16:39.071Z,5.82
2023-05-04T12:19:54.124Z,7.85
2023-05-04T12:22:58.311Z,6.10
2023-05-04T12:26:01.559Z,7.07
2023-05-04T12:29:05.089Z,7.68
2023-05-04T12:32:08.480Z,7.68
2023-05-04T12:35:12.033Z,9.23
2023-05-04T12:38:15.640Z,6.97
2023-05-04T12:41:19.338Z,9.10
2023-05-04T12:44:22.686Z,8.40
2023-05-04T12:47:26.264Z,9.50
2023-05-04T12:50:30.403Z,7.72
2023-05-04T12:53:33.997Z,7.68
2023-05-04T12:56:37.529Z,9.77
2023-05-04T12:59:40.893Z,6.28
2023-05-04T13:02:44.520Z,7.22
2023-05-04T13:05:49.812Z,7.65
2023-05-04T13:08:53.283Z,6.95
2023-05-04T13:11:56.561Z,7.00
2023-05-04T13:15:00.798Z,7.60
2023-05-04T13:18:04.256Z,7.15
2023-05-04T13:21:09.180Z,5.65
2023-05-04T13:24:12.590Z,5.10
2023-05-04T13:27:15.921Z,6.40
2023-05-04T13:30:22.007Z,6.10
2023-05-04T13:33:29.933Z,6.30
2023-05-04T13:36:36.029Z,11.25
2023-05-04T13:39:42.580Z,6.53
2023-05-04T13:42:46.291Z,9.10
2023-05-04T13:45:50.097Z,8.98
2023-05-04T13:48:54.684Z,4.78
2023-05-04T13:52:00.056Z,6.00
2023-05-04T13:55:03.578Z,6.80
2023-05-04T13:58:07.423Z,6.13
2023-05-04T14:01:11.989Z,5.88
2023-05-04T14:04:15.289Z,5.90
2023-05-04T14:07:18.607Z,6.80
2023-05-04T14:10:26.901Z,7.20
2023-05-04T14:13:30.345Z,5.43
2023-05-04T14:16:34.989Z,4.68
2023-05-04T14:19:39.619Z,4.70
2023-05-04T14:22:42.974Z,5.47
2023-05-04T14:25:53.441Z,7.50
2023-05-04T14:28:57.350Z,5.20
2023-05-04T14:32:01.630Z,6.63
2023-05-04T14:35:09.996Z,5.00
2023-05-04T14:38:13.907Z,6.22
2023-05-04T14:41:17.210Z,6.38
2023-05-04T14:44:22.692Z,4.90
2023-05-04T14:47:27.568Z,7.40
2023-05-04T14:50:34.616Z,7.00
2023-05-04T14:53:39.709Z,4.65
2023-05-04T14:56:47.604Z,6.00
2023-05-04T14:59:51.244Z,9.93
2023-05-04T15:02:54.541Z,8.65
2023-05-04T15:05:58.340Z,5.50
2023-05-04T15:09:01.623Z,6.65
2023-05-04T15:12:05.434Z,5.70
2023-05-04T15:15:10.155Z,6.17
2023-05-04T15:18:14.407Z,7.28
2023-05-04T15:21:18.859Z,7.10
2023-05-04T15:24:22.163Z,5.28
2023-05-04T15:27:25.470Z,7.55
2023-05-04T15:30:29.282Z,8.13
2023-05-04T15:33:32.785Z,5.30
2023-05-04T15:36:35.994Z,6.60
2023-05-04T15:39:39.411Z,5.82
2023-05-04T15:42:42.940Z,8.57
2023-05-04T15:45:46.829Z,5.47
2023-05-04T15:48:50.245Z,5.72
2023-05-04T15:51:53.988Z,4.97
2023-05-04T15:55:00.668Z,6.70
2023-05-04T15:58:08.068Z,5.00
2023-05-04T16:01:14.557Z,6.50
2023-05-04T16:04:18.337Z,6.40
2023-05-04T16:07:21.602Z,5.18
2023-05-04T16:10:26.572Z,8.60
2023-05-04T16:13:30.042Z,6.60
2023-05-04T16:16:33.499Z,6.57
2023-05-04T16:19:36.832Z,6.50
2023-05-04T16:22:40.107Z,7.45
2023-05-04T16:25:43.951Z,7.35
2023-05-04T16:28:47.266Z,6.68
2023-05-04T16:31:51.067Z,5.67
2023-05-04T16:34:54.267Z,8.55
2023-05-04T16:37:58.400Z,9.13
2023-05-04T16:41:02.895Z,6.07
2023-05-04T16:44:06.277Z,8.93
2023-05-04T16:47:09.662Z,9.87
2023-05-04T16:50:14.332Z,7.85
2023-05-04T16:53:18.233Z,8.35
2023-05-04T16:56:23.052Z,8.35
2023-05-04T16:59:26.512Z,10.52
2023-05-04T17:02:29.909Z,6.13
2023-05-04T17:05:33.181Z,8.38
2023-05-04T17:08:37.522Z,7.68
2023-05-04T17:11:41.298Z,6.38
2023-05-04T17:14:46.035Z,6.53
2023-05-04T17:17:49.482Z,6.93
2023-05-04T17:20:55.667Z,8.10
2023-05-04T17:23:59.281Z,8.23
2023-05-04T17:27:03.741Z,9.23
2023-05-04T17:30:07.902Z,8.52
2023-05-04T17:33:11.744Z,6.77
2023-05-04T17:36:15.365Z,7.45
2023-05-04T17:39:18.827Z,8.23
2023-05-04T17:42:22.016Z,10.52
2023-05-04T17:45:25.644Z,7.82
2023-05-04T17:48:32.135Z,10.03
2023-05-04T17:51:35.788Z,6.78
2023-05-04T17:54:39.230Z,8.95
2023-05-04T17:57:42.508Z,7.93
2023-05-04T18:00:47.281Z,10.50
2023-05-04T18:03:50.682Z,8.50
2023-05-04T18:06:53.941Z,13.30
2023-05-04T18:09:57.383Z,11.63
2023-05-04T18:13:00.717Z,11.02
2023-05-04T18:16:04.308Z,12.10
2023-05-04T18:19:08.104Z,10.93
2023-05-04T18:22:11.356Z,10.82
2023-05-04T18:25:17.424Z,10.02
2023-05-04T18:28:20.908Z,11.80
2023-05-04T18:31:24.965Z,10.88
2023-05-04T18:34:28.418Z,8.03
2023-05-04T18:37:31.650Z,10.57
2023-05-04T18:40:35.148Z,7.82
2023-05-04T18:43:38.386Z,8.85
2023-05-04T18:46:41.637Z,8.90
2023-05-04T18:49:49.165Z,8.87
2023-05-04T18:52:54.056Z,7.88
2023-05-04T18:56:07.678Z,9.70
2023-05-04T18:59:11.173Z,8.55
2023-05-04T19:02:14.616Z,8.18
2023-05-04T19:05:17.892Z,9.90
2023-05-04T19:08:21.438Z,8.45
2023-05-04T19:11:27.310Z,9.32
2023-05-04T19:14:33.534Z,7.20
2023-05-04T19:17:37.166Z,8.77
2023-05-04T19:20:43.165Z,10.37
2023-05-04T19:23:46.802Z,8.30
2023-05-04T19:26:50.042Z,10.55
2023-05-04T19:29:53.353Z,10.32
2023-05-04T19:32:56.774Z,8.85
2023-05-04T19:36:01.375Z,10.30
2023-05-04T19:39:04.864Z,8.52
2023-05-04T19:42:08.361Z,8.13
2023-05-04T19:45:12.486Z,8.32
2023-05-04T19:48:17.497Z,7.88
2023-05-04T19:51:22.639Z,8.10
2023-05-04T19:54:26.206Z,6.63
2023-05-04T19:57:29.930Z,8.05
2023-05-04T20:00:38.018Z,8.70
2023-05-04T20:03:41.251Z,9.85
2023-05-04T20:06:44.987Z,6.93
2023-05-04T20:09:48.272Z,8.02
2023-05-04T20:12:51.708Z,10.00
2023-05-04T20:15:55.370Z,7.93
2023-05-04T20:19:03.397Z,7.93
2023-05-04T20:22:07.393Z,8.47
2023-05-04T20:25:10.876Z,8.40
2023-05-04T20:28:14.378Z,8.50
2023-05-04T20:31:17.809Z,7.95
2023-05-04T20:34:21.519Z,11.02
2023-05-04T20:37:24.709Z,8.13
2023-05-04T20:40:29.603Z,8.95
2023-05-04T20:43:33.364Z,7.75
2023-05-04T20:46:37.510Z,10.52
2023-05-04T20:49:40.893Z,8.13
2023-05-04T20:52:44.677Z,6.90
2023-05-04T20:55:47.908Z,8.32
2023-05-04T20:58:51.604Z,9.27
2023-05-04T21:01:54.998Z,8.65
2023-05-04T21:04:58.601Z,9.32
2023-05-04T21:08:01.788Z,10.57
2023-05-04T21:11:06.717Z,9.25
2023-05-04T21:14:10.043Z,12.25
2023-05-04T21:17:13.265Z,10.60
2023-05-04T21:20:17.222Z,12.35
2023-05-04T21:23:20.708Z,8.63
2023-05-04T21:26:23.892Z,11.23
2023-05-04T21:29:27.464Z,16.50
2023-05-04T21:32:31.291Z,9.85
2023-05-04T21:35:34.512Z,10.77
2023-05-04T21:38:37.997Z,12.67
2023-05-04T21:41:41.502Z,10.95
2023-05-04T21:44:44.735Z,11.90
2023-05-04T21:47:47.991Z,16.23
2023-05-04T21:50:51.658Z,13.85
2023-05-04T21:53:55.410Z,12.90
2023-05-04T21:56:58.575Z,13.05
2023-05-04T22:00:02.080Z,17.27
2023-05-04T22:03:09.422Z,13.60
2023-05-04T22:06:12.683Z,12.07
2023-05-04T22:09:15.960Z,16.53
2023-05-04T22:12:19.798Z,11.02
2023-05-04T22:15:23.494Z,10.93
2023-05-04T22:18:27.007Z,12.75
2023-05-04T22:21:32.448Z,13.82
2023-05-04T22:24:35.816Z,20.10
2023-05-04T22:27:39.031Z,13.93
2023-05-04T22:30:42.318Z,14.48
2023-05-04T22:33:45.636Z,19.42
2023-05-04T22:36:48.948Z,12.85
2023-05-04T22:39:52.142Z,14.67
2023-05-04T22:42:55.573Z,10.68
2023-05-04T22:45:58.754Z,13.05
2023-05-04T22:49:01.945Z,13.63
2023-05-04T22:52:05.532Z,14.82
2023-05-04T22:55:09.353Z,11.40
2023-05-04T22:58:12.526Z,19.83
2023-05-04T23:01:15.868Z,17.60
2023-05-04T23:04:19.385Z,17.48
2023-05-04T23:07:22.596Z,13.82
2023-05-04T23:10:25.772Z,14.33
2023-05-04T23:13:29.234Z,19.45
2023-05-04T23:16:32.972Z,19.55
2023-05-04T23:19:36.751Z,19.38
2023-05-04T23:22:40.652Z,17.42
2023-05-04T23:25:44.033Z,17.43
2023-05-04T23:28:47.340Z,15.15
2023-05-04T23:31:51.245Z,16.73
2023-05-04T23:34:54.797Z,17.05
2023-05-04T23:37:58.184Z,16.05
2023-05-04T23:41:04.791Z,16.13
2023-05-04T23:44:08.485Z,16.08
2023-05-04T23:47:11.731Z,15.23
2023-05-04T23:50:15.188Z,15.43
2023-05-04T23:53:18.470Z,12.65
2023-05-04T23:56:22.327Z,11.77
2023-05-04T23:59:26.301Z,15.93
